Weather History for KY63 - October, 2012

Change the Weather History Date:

Monday, October 29, 2012

  Actual Average (KFFM) Record (KFFM)
Temperature  
Mean Temperature 40 °F -  
Max Temperature 46 °F 49 °F 73 °F (1950)
Min Temperature 35 °F 29 °F 3 °F (1996)
Degree Days  
Heating Degree Days 24    
Moisture  
Dew Point 29 °F    
Average Humidity 65    
Maximum Humidity 87    
Minimum Humidity 50    
Precipitation  
Precipitation 0.00 in - - ()
Sea Level Pressure  
Sea Level Pressure 30.17 in    
Wind  
Wind Speed 15 mph (SE)    
Max Wind Speed 21 mph    
Max Gust Speed 28 mph    
Visibility 10 miles    
Events      
Averages and records for this station are not official NWS values.
T = Trace of Precipitation, MM = Missing Value Source: NWS Daily Summary

Daily Weather History Graph

Daily Weather History Graph

Search for Another Location

Airport or City:

Trip Planner

Search our weather history database for the weather conditions in past years. The results will help you decide how hot, cold, wet, or windy it might be!

Date:

Astronomy

Oct. 29, 2012 Rise Set
Actual Time 8:00 AM CDT 6:13 PM CDT
Civil Twilight 7:29 AM CDT 6:44 PM CDT
Nautical Twilight 6:54 AM CDT 7:19 PM CDT
Astronomical Twilight 6:20 AM CDT 7:54 PM CDT
Moon 6:03 PM CDT (10/29) 7:54 AM CDT (10/29)
Length of Visible Light 11h 14m
Length of Day
10h 12m
Full, 100% of the Moon is Illuminated
Oct 29
Full
Oct 29
Full
Nov 6
Last Quarter
Nov 13
New
Nov 20
First Quarter

Hourly Weather History & Observations

Time (CDT) Temp. Windchill Dew Point Humidity Pressure Visibility Wind Dir Wind Speed Gust Speed Precip Events Conditions
12:15 AM 35.6 °F 27.5 °F 32.0 °F 87% 30.18 in 10.0 mi SE 11.5 mph - N/A   Clear
12:35 AM 35.6 °F 26.6 °F 30.2 °F 81% 30.18 in 10.0 mi SE 13.8 mph - N/A   Clear
12:55 AM 35.6 °F 26.6 °F 30.2 °F 81% 30.18 in 10.0 mi SE 13.8 mph - N/A   Clear
1:15 AM 35.6 °F 26.6 °F 30.2 °F 81% 30.19 in 10.0 mi SE 13.8 mph - N/A   Clear
1:35 AM 35.6 °F 26.6 °F 30.2 °F 81% 30.19 in 10.0 mi SSE 13.8 mph - N/A   Mostly Cloudy
1:55 AM 35.6 °F 26.6 °F 30.2 °F 81% 30.19 in 10.0 mi SE 13.8 mph - N/A   Overcast
2:15 AM 35.6 °F 26.6 °F 30.2 °F 81% 30.18 in 10.0 mi SE 13.8 mph - N/A   Mostly Cloudy
2:35 AM 35.6 °F 26.2 °F 30.2 °F 81% 30.18 in 10.0 mi SE 15.0 mph - N/A   Mostly Cloudy
2:55 AM 35.6 °F 26.2 °F 30.2 °F 81% 30.18 in 10.0 mi SE 15.0 mph - N/A   Overcast
3:15 AM 35.6 °F 26.2 °F 30.2 °F 81% 30.18 in 10.0 mi SE 15.0 mph - N/A   Overcast
3:35 AM 35.6 °F 26.6 °F 30.2 °F 81% 30.17 in 10.0 mi SE 13.8 mph 19.6 mph N/A   Overcast
3:55 AM 35.6 °F 26.6 °F 30.2 °F 81% 30.17 in 10.0 mi SE 13.8 mph - N/A   Overcast
4:15 AM 35.6 °F 26.6 °F 30.2 °F 81% 30.17 in 10.0 mi SE 13.8 mph - N/A   Overcast
4:35 AM 37.4 °F 28.5 °F 30.2 °F 75% 30.16 in 10.0 mi SE 15.0 mph - N/A   Overcast
4:55 AM 37.4 °F 28.5 °F 28.4 °F 70% 30.16 in 10.0 mi SE 15.0 mph - N/A   Overcast
5:15 AM 37.4 °F 28.2 °F 28.4 °F 70% 30.16 in 10.0 mi SE 16.1 mph - N/A   Overcast
5:35 AM 37.4 °F 28.5 °F 28.4 °F 70% 30.16 in 10.0 mi SE 15.0 mph 19.6 mph N/A   Overcast
6:15 AM 37.4 °F 28.5 °F 28.4 °F 70% 30.16 in 10.0 mi SE 15.0 mph - N/A   Overcast
6:35 AM 37.4 °F 28.9 °F 28.4 °F 70% 30.16 in 10.0 mi SE 13.8 mph - N/A   Overcast
6:55 AM 37.4 °F 28.9 °F 28.4 °F 70% 30.16 in 10.0 mi SE 13.8 mph 18.4 mph N/A   Overcast
7:15 AM 37.4 °F 28.2 °F 28.4 °F 70% 30.16 in 10.0 mi SE 16.1 mph 21.9 mph N/A   Overcast
7:35 AM 37.4 °F 28.5 °F 28.4 °F 70% 30.16 in 10.0 mi SE 15.0 mph - N/A   Overcast
8:15 AM 37.4 °F 28.2 °F 26.6 °F 65% 30.16 in 10.0 mi SE 16.1 mph 23.0 mph N/A   Overcast
8:35 AM 37.4 °F 27.8 °F 26.6 °F 65% 30.16 in 10.0 mi SE 17.3 mph - N/A   Overcast
9:15 AM 37.4 °F 28.5 °F 26.6 °F 65% 30.17 in 10.0 mi SSE 15.0 mph - N/A   Overcast
9:35 AM 37.4 °F 28.2 °F 26.6 °F 65% 30.17 in 10.0 mi SE 16.1 mph - N/A   Overcast
9:55 AM 37.4 °F 27.8 °F 26.6 °F 65% 30.17 in 10.0 mi SSE 17.3 mph 23.0 mph N/A   Overcast
10:15 AM 39.2 °F 30.2 °F 26.6 °F 61% 30.17 in 10.0 mi SE 17.3 mph - N/A   Overcast
10:35 AM 41.0 °F 32.5 °F 28.4 °F 61% 30.18 in 10.0 mi SE 17.3 mph 23.0 mph N/A   Overcast
10:55 AM 41.0 °F 32.5 °F 28.4 °F 61% 30.18 in 10.0 mi SSE 17.3 mph - N/A   Mostly Cloudy
11:15 AM 42.8 °F 34.8 °F 28.4 °F 57% 30.18 in 10.0 mi SSE 17.3 mph 25.3 mph N/A   Overcast
11:35 AM 42.8 °F 34.5 °F 28.4 °F 57% 30.18 in 10.0 mi SSE 18.4 mph 26.5 mph N/A   Overcast
11:55 AM 42.8 °F 34.0 °F 28.4 °F 57% 30.18 in 10.0 mi SSE 20.7 mph 27.6 mph N/A   Overcast
12:15 PM 44.6 °F 36.4 °F 28.4 °F 53% 30.18 in 10.0 mi SSE 20.7 mph 27.6 mph N/A   Overcast
12:35 PM 44.6 °F 36.9 °F 28.4 °F 53% 30.18 in 10.0 mi SSE 18.4 mph 25.3 mph N/A   Mostly Cloudy
1:15 PM 44.6 °F 37.2 °F 28.4 °F 53% 30.18 in 10.0 mi SSE 17.3 mph 25.3 mph N/A   Overcast
1:35 PM 44.6 °F 36.9 °F 28.4 °F 53% 30.17 in 10.0 mi SSE 18.4 mph 24.2 mph N/A   Scattered Clouds
1:55 PM 44.6 °F 36.4 °F 28.4 °F 53% 30.17 in 10.0 mi SSE 20.7 mph 25.3 mph N/A   Scattered Clouds
2:15 PM 46.4 °F 39.0 °F 30.2 °F 53% 30.16 in 10.0 mi SSE 19.6 mph 23.0 mph N/A   Mostly Cloudy
2:35 PM 46.4 °F 39.2 °F 30.2 °F 53% 30.16 in 10.0 mi SSE 18.4 mph 21.9 mph N/A   Overcast
2:55 PM 46.4 °F 39.8 °F 30.2 °F 53% 30.16 in 10.0 mi SE 16.1 mph - N/A   Overcast
3:15 PM 46.4 °F 39.2 °F 30.2 °F 53% 30.15 in 10.0 mi SSE 18.4 mph 24.2 mph N/A   Scattered Clouds
3:35 PM 46.4 °F 40.1 °F 30.2 °F 53% 30.15 in 10.0 mi SSE 15.0 mph - N/A   Clear
3:55 PM 46.4 °F 39.0 °F 30.2 °F 53% 30.14 in 10.0 mi SSE 19.6 mph - N/A   Clear
4:15 PM 46.4 °F 39.8 °F 30.2 °F 53% 30.14 in 10.0 mi SE 16.1 mph - N/A   Clear
4:35 PM 46.4 °F 39.8 °F 30.2 °F 53% 30.14 in 10.0 mi SE 16.1 mph - N/A   Clear
5:15 PM 46.4 °F 40.1 °F 28.4 °F 50% 30.14 in 10.0 mi SE 15.0 mph 24.2 mph N/A   Clear
5:35 PM 44.6 °F 37.4 °F 28.4 °F 53% 30.15 in 10.0 mi SE 16.1 mph 23.0 mph N/A   Clear
5:55 PM 44.6 °F 38.4 °F 28.4 °F 53% 30.15 in 10.0 mi SE 12.7 mph - N/A   Clear
6:15 PM 42.8 °F 36.2 °F 28.4 °F 57% 30.16 in 10.0 mi SE 12.7 mph - N/A   Clear
6:35 PM 42.8 °F 36.6 °F 28.4 °F 57% 30.16 in 10.0 mi SE 11.5 mph 20.7 mph N/A   Clear
6:55 PM 42.8 °F 36.6 °F 28.4 °F 57% 30.16 in 10.0 mi ESE 11.5 mph - N/A   Clear
7:15 PM 41.0 °F 33.9 °F 28.4 °F 61% 30.16 in 10.0 mi ESE 12.7 mph - N/A   Clear
7:35 PM 41.0 °F 33.9 °F 28.4 °F 61% 30.16 in 10.0 mi ESE 12.7 mph 18.4 mph N/A   Clear
7:55 PM 41.0 °F 33.9 °F 28.4 °F 61% 30.16 in 10.0 mi ESE 12.7 mph - N/A   Clear
11:15 PM 37.4 °F 28.5 °F 28.4 °F 70% 30.17 in 10.0 mi SE 15.0 mph 21.9 mph N/A   Clear
11:35 PM 37.4 °F 29.3 °F 28.4 °F 70% 30.17 in 10.0 mi SE 12.7 mph - N/A   Clear
11:55 PM 35.6 °F 27.1 °F 28.4 °F 75% 30.17 in 10.0 mi SE 12.7 mph - N/A   Clear